sensor_id;sensor_type;location;lat;lon;timestamp;P1;durP1;ratioP1;P2;durP2;ratioP2
17658;SDS011;8948;51.534;8.262;2022-08-05T00:01:14;10.68;;;5.57;;
17658;SDS011;8948;51.534;8.262;2022-08-05T00:06:16;14.40;;;6.20;;
17658;SDS011;8948;51.534;8.262;2022-08-05T00:11:17;14.63;;;6.53;;
17658;SDS011;8948;51.534;8.262;2022-08-05T00:16:18;8.20;;;5.40;;
17658;SDS011;8948;51.534;8.262;2022-08-05T00:21:19;11.40;;;5.30;;
17658;SDS011;8948;51.534;8.262;2022-08-05T00:26:20;14.60;;;6.05;;
17658;SDS011;8948;51.534;8.262;2022-08-05T00:31:21;13.40;;;5.57;;
17658;SDS011;8948;51.534;8.262;2022-08-05T00:36:21;13.73;;;5.22;;
17658;SDS011;8948;51.534;8.262;2022-08-05T00:41:27;11.23;;;4.70;;
17658;SDS011;8948;51.534;8.262;2022-08-05T00:46:32;7.43;;;4.53;;
17658;SDS011;8948;51.534;8.262;2022-08-05T00:51:33;11.10;;;5.60;;
17658;SDS011;8948;51.534;8.262;2022-08-05T00:56:33;14.70;;;5.65;;
17658;SDS011;8948;51.534;8.262;2022-08-05T01:01:34;13.18;;;5.10;;
17658;SDS011;8948;51.534;8.262;2022-08-05T01:06:35;14.15;;;5.45;;
17658;SDS011;8948;51.534;8.262;2022-08-05T01:11:36;16.30;;;6.13;;
17658;SDS011;8948;51.534;8.262;2022-08-05T01:22:06;15.55;;;6.32;;
17658;SDS011;8948;51.534;8.262;2022-08-05T01:32:47;17.58;;;6.07;;
17658;SDS011;8948;51.534;8.262;2022-08-05T01:37:51;8.23;;;5.90;;
17658;SDS011;8948;51.534;8.262;2022-08-05T01:42:54;14.95;;;7.13;;
17658;SDS011;8948;51.534;8.262;2022-08-05T01:47:58;15.07;;;6.55;;
17658;SDS011;8948;51.534;8.262;2022-08-05T01:53:01;16.02;;;8.38;;
17658;SDS011;8948;51.534;8.262;2022-08-05T01:58:06;19.77;;;8.85;;
17658;SDS011;8948;51.534;8.262;2022-08-05T02:03:15;14.68;;;7.35;;
17658;SDS011;8948;51.534;8.262;2022-08-05T02:08:19;13.23;;;7.95;;
17658;SDS011;8948;51.534;8.262;2022-08-05T02:13:25;14.20;;;8.73;;
17658;SDS011;8948;51.534;8.262;2022-08-05T02:18:48;21.92;;;8.32;;
17658;SDS011;8948;51.534;8.262;2022-08-05T02:24:02;13.38;;;8.75;;
17658;SDS011;8948;51.534;8.262;2022-08-05T02:29:05;12.68;;;7.63;;
17658;SDS011;8948;51.534;8.262;2022-08-05T02:34:11;16.65;;;7.90;;
17658;SDS011;8948;51.534;8.262;2022-08-05T02:39:14;18.25;;;8.63;;
17658;SDS011;8948;51.534;8.262;2022-08-05T02:44:17;15.73;;;7.25;;
17658;SDS011;8948;51.534;8.262;2022-08-05T02:49:20;14.85;;;7.38;;
17658;SDS011;8948;51.534;8.262;2022-08-05T02:54:20;10.55;;;6.45;;
17658;SDS011;8948;51.534;8.262;2022-08-05T02:59:21;14.63;;;8.77;;
17658;SDS011;8948;51.534;8.262;2022-08-05T03:04:25;13.20;;;7.03;;
17658;SDS011;8948;51.534;8.262;2022-08-05T03:09:27;12.55;;;7.20;;
17658;SDS011;8948;51.534;8.262;2022-08-05T03:14:28;12.70;;;6.35;;
17658;SDS011;8948;51.534;8.262;2022-08-05T03:19:29;15.55;;;6.70;;
17658;SDS011;8948;51.534;8.262;2022-08-05T03:24:29;10.75;;;5.20;;
17658;SDS011;8948;51.534;8.262;2022-08-05T03:29:30;11.95;;;4.80;;
17658;SDS011;8948;51.534;8.262;2022-08-05T03:34:31;10.10;;;4.10;;
17658;SDS011;8948;51.534;8.262;2022-08-05T03:39:32;8.18;;;4.68;;
17658;SDS011;8948;51.534;8.262;2022-08-05T03:44:32;6.57;;;4.15;;
17658;SDS011;8948;51.534;8.262;2022-08-05T03:49:33;7.20;;;4.20;;
17658;SDS011;8948;51.534;8.262;2022-08-05T04:00:13;9.02;;;4.63;;
17658;SDS011;8948;51.534;8.262;2022-08-05T04:05:15;14.13;;;5.65;;
17658;SDS011;8948;51.534;8.262;2022-08-05T04:10:16;10.50;;;5.55;;
17658;SDS011;8948;51.534;8.262;2022-08-05T04:15:17;16.58;;;7.22;;
17658;SDS011;8948;51.534;8.262;2022-08-05T04:20:19;18.08;;;8.02;;
17658;SDS011;8948;51.534;8.262;2022-08-05T04:25:21;16.33;;;7.35;;
17658;SDS011;8948;51.534;8.262;2022-08-05T04:30:21;10.13;;;7.18;;
17658;SDS011;8948;51.534;8.262;2022-08-05T04:35:22;12.30;;;5.68;;
17658;SDS011;8948;51.534;8.262;2022-08-05T04:40:22;17.73;;;7.65;;
17658;SDS011;8948;51.534;8.262;2022-08-05T04:45:23;14.40;;;6.53;;
17658;SDS011;8948;51.534;8.262;2022-08-05T04:50:25;14.63;;;7.85;;
17658;SDS011;8948;51.534;8.262;2022-08-05T04:55:25;11.52;;;7.68;;
17658;SDS011;8948;51.534;8.262;2022-08-05T05:00:26;16.20;;;8.48;;
17658;SDS011;8948;51.534;8.262;2022-08-05T05:05:27;12.85;;;9.20;;
17658;SDS011;8948;51.534;8.262;2022-08-05T05:10:29;16.50;;;8.60;;
17658;SDS011;8948;51.534;8.262;2022-08-05T05:15:31;12.55;;;7.72;;
17658;SDS011;8948;51.534;8.262;2022-08-05T05:20:32;13.02;;;7.28;;
17658;SDS011;8948;51.534;8.262;2022-08-05T05:25:33;9.07;;;6.85;;
17658;SDS011;8948;51.534;8.262;2022-08-05T05:30:34;12.88;;;6.85;;
17658;SDS011;8948;51.534;8.262;2022-08-05T05:35:35;11.65;;;7.70;;
17658;SDS011;8948;51.534;8.262;2022-08-05T05:40:36;12.35;;;7.53;;
17658;SDS011;8948;51.534;8.262;2022-08-05T05:45:36;9.23;;;7.00;;
17658;SDS011;8948;51.534;8.262;2022-08-05T05:50:37;10.63;;;7.18;;
17658;SDS011;8948;51.534;8.262;2022-08-05T05:55:39;9.45;;;6.68;;
17658;SDS011;8948;51.534;8.262;2022-08-05T06:00:40;15.75;;;7.38;;
17658;SDS011;8948;51.534;8.262;2022-08-05T06:05:41;14.07;;;6.82;;
17658;SDS011;8948;51.534;8.262;2022-08-05T06:10:41;16.40;;;8.57;;
17658;SDS011;8948;51.534;8.262;2022-08-05T06:15:42;13.18;;;8.50;;
17658;SDS011;8948;51.534;8.262;2022-08-05T06:20:42;14.75;;;7.85;;
17658;SDS011;8948;51.534;8.262;2022-08-05T06:25:43;16.50;;;8.80;;
17658;SDS011;8948;51.534;8.262;2022-08-05T06:30:43;20.20;;;9.10;;
17658;SDS011;8948;51.534;8.262;2022-08-05T06:35:44;19.58;;;8.68;;
17658;SDS011;8948;51.534;8.262;2022-08-05T06:40:44;18.38;;;8.27;;
17658;SDS011;8948;51.534;8.262;2022-08-05T06:45:45;15.07;;;6.93;;
17658;SDS011;8948;51.534;8.262;2022-08-05T06:50:46;14.00;;;7.32;;
17658;SDS011;8948;51.534;8.262;2022-08-05T06:55:46;17.73;;;8.57;;
17658;SDS011;8948;51.534;8.262;2022-08-05T07:00:47;14.15;;;7.82;;
17658;SDS011;8948;51.534;8.262;2022-08-05T07:05:47;16.30;;;7.78;;
17658;SDS011;8948;51.534;8.262;2022-08-05T07:10:48;17.30;;;9.18;;
17658;SDS011;8948;51.534;8.262;2022-08-05T07:15:49;25.15;;;9.45;;
17658;SDS011;8948;51.534;8.262;2022-08-05T07:21:08;20.35;;;10.18;;
17658;SDS011;8948;51.534;8.262;2022-08-05T07:26:08;20.83;;;11.13;;
17658;SDS011;8948;51.534;8.262;2022-08-05T07:31:09;22.42;;;10.25;;
17658;SDS011;8948;51.534;8.262;2022-08-05T07:36:09;20.50;;;10.45;;
17658;SDS011;8948;51.534;8.262;2022-08-05T07:41:13;18.88;;;10.82;;
17658;SDS011;8948;51.534;8.262;2022-08-05T07:46:16;20.80;;;12.00;;
17658;SDS011;8948;51.534;8.262;2022-08-05T07:51:16;20.02;;;11.38;;
17658;SDS011;8948;51.534;8.262;2022-08-05T07:56:17;23.02;;;12.48;;
17658;SDS011;8948;51.534;8.262;2022-08-05T08:01:18;22.50;;;14.23;;
17658;SDS011;8948;51.534;8.262;2022-08-05T08:06:19;26.83;;;14.90;;
17658;SDS011;8948;51.534;8.262;2022-08-05T08:11:20;22.33;;;15.07;;
17658;SDS011;8948;51.534;8.262;2022-08-05T08:16:21;23.33;;;15.18;;
17658;SDS011;8948;51.534;8.262;2022-08-05T08:21:21;24.33;;;15.02;;
17658;SDS011;8948;51.534;8.262;2022-08-05T08:26:22;25.73;;;16.60;;
17658;SDS011;8948;51.534;8.262;2022-08-05T08:31:22;25.15;;;17.80;;
17658;SDS011;8948;51.534;8.262;2022-08-05T08:36:23;29.58;;;17.52;;
17658;SDS011;8948;51.534;8.262;2022-08-05T08:41:24;24.58;;;17.02;;
17658;SDS011;8948;51.534;8.262;2022-08-05T08:46:27;23.50;;;16.63;;
17658;SDS011;8948;51.534;8.262;2022-08-05T08:51:31;25.00;;;16.88;;
17658;SDS011;8948;51.534;8.262;2022-08-05T08:56:33;24.15;;;17.75;;
17658;SDS011;8948;51.534;8.262;2022-08-05T09:01:33;31.20;;;21.38;;
17658;SDS011;8948;51.534;8.262;2022-08-05T09:06:35;35.80;;;19.58;;
17658;SDS011;8948;51.534;8.262;2022-08-05T09:11:36;34.03;;;19.05;;
17658;SDS011;8948;51.534;8.262;2022-08-05T09:16:37;30.23;;;18.88;;
17658;SDS011;8948;51.534;8.262;2022-08-05T09:21:39;27.17;;;18.55;;
17658;SDS011;8948;51.534;8.262;2022-08-05T09:26:39;27.55;;;17.65;;
17658;SDS011;8948;51.534;8.262;2022-08-05T09:31:40;25.15;;;17.92;;
17658;SDS011;8948;51.534;8.262;2022-08-05T09:47:10;22.30;;;18.90;;
17658;SDS011;8948;51.534;8.262;2022-08-05T09:52:17;30.05;;;19.48;;
17658;SDS011;8948;51.534;8.262;2022-08-05T10:02:33;24.25;;;18.08;;
17658;SDS011;8948;51.534;8.262;2022-08-05T10:07:42;20.17;;;12.82;;
17658;SDS011;8948;51.534;8.262;2022-08-05T10:12:59;19.88;;;12.63;;
17658;SDS011;8948;51.534;8.262;2022-08-05T10:18:14;16.40;;;13.45;;
17658;SDS011;8948;51.534;8.262;2022-08-05T10:23:17;19.67;;;12.60;;
17658;SDS011;8948;51.534;8.262;2022-08-05T10:28:23;32.50;;;14.10;;
17658;SDS011;8948;51.534;8.262;2022-08-05T10:33:24;24.65;;;13.70;;
17658;SDS011;8948;51.534;8.262;2022-08-05T10:38:28;23.77;;;12.95;;
17658;SDS011;8948;51.534;8.262;2022-08-05T10:48:49;22.80;;;10.95;;
17658;SDS011;8948;51.534;8.262;2022-08-05T10:53:57;16.48;;;11.00;;
17658;SDS011;8948;51.534;8.262;2022-08-05T11:04:06;19.88;;;10.85;;
17658;SDS011;8948;51.534;8.262;2022-08-05T11:09:20;16.00;;;7.95;;
17658;SDS011;8948;51.534;8.262;2022-08-05T11:14:31;12.63;;;8.95;;
17658;SDS011;8948;51.534;8.262;2022-08-05T11:19:43;13.60;;;8.65;;
17658;SDS011;8948;51.534;8.262;2022-08-05T11:24:44;17.30;;;8.73;;
17658;SDS011;8948;51.534;8.262;2022-08-05T11:29:45;16.88;;;7.38;;
17658;SDS011;8948;51.534;8.262;2022-08-05T11:34:58;11.63;;;6.53;;
17658;SDS011;8948;51.534;8.262;2022-08-05T11:39:59;10.60;;;5.43;;
17658;SDS011;8948;51.534;8.262;2022-08-05T11:45:00;11.07;;;7.03;;
17658;SDS011;8948;51.534;8.262;2022-08-05T11:50:03;13.57;;;6.88;;
17658;SDS011;8948;51.534;8.262;2022-08-05T11:55:04;16.38;;;5.82;;
17658;SDS011;8948;51.534;8.262;2022-08-05T12:00:23;11.18;;;6.28;;
17658;SDS011;8948;51.534;8.262;2022-08-05T12:05:28;11.55;;;7.82;;
17658;SDS011;8948;51.534;8.262;2022-08-05T12:10:28;15.32;;;9.70;;
17658;SDS011;8948;51.534;8.262;2022-08-05T12:15:31;16.10;;;10.32;;
17658;SDS011;8948;51.534;8.262;2022-08-05T12:20:32;15.88;;;9.77;;
17658;SDS011;8948;51.534;8.262;2022-08-05T12:25:52;15.82;;;9.93;;
17658;SDS011;8948;51.534;8.262;2022-08-05T12:30:55;20.77;;;10.57;;
17658;SDS011;8948;51.534;8.262;2022-08-05T12:35:56;22.75;;;10.65;;
17658;SDS011;8948;51.534;8.262;2022-08-05T12:40:57;13.75;;;7.82;;
17658;SDS011;8948;51.534;8.262;2022-08-05T12:45:58;12.90;;;7.63;;
17658;SDS011;8948;51.534;8.262;2022-08-05T12:51:08;11.60;;;8.27;;
17658;SDS011;8948;51.534;8.262;2022-08-05T12:56:20;13.23;;;8.52;;
17658;SDS011;8948;51.534;8.262;2022-08-05T13:01:21;14.20;;;8.35;;
17658;SDS011;8948;51.534;8.262;2022-08-05T13:06:22;14.82;;;7.53;;
17658;SDS011;8948;51.534;8.262;2022-08-05T13:11:28;12.88;;;6.50;;
17658;SDS011;8948;51.534;8.262;2022-08-05T13:16:30;12.80;;;7.40;;
17658;SDS011;8948;51.534;8.262;2022-08-05T13:21:30;17.40;;;6.88;;
17658;SDS011;8948;51.534;8.262;2022-08-05T13:26:31;12.23;;;6.85;;
17658;SDS011;8948;51.534;8.262;2022-08-05T13:31:32;10.95;;;5.55;;
17658;SDS011;8948;51.534;8.262;2022-08-05T13:36:33;7.53;;;4.35;;
17658;SDS011;8948;51.534;8.262;2022-08-05T13:41:34;7.47;;;3.75;;
17658;SDS011;8948;51.534;8.262;2022-08-05T13:46:35;8.88;;;3.83;;
17658;SDS011;8948;51.534;8.262;2022-08-05T13:51:36;5.90;;;3.10;;
17658;SDS011;8948;51.534;8.262;2022-08-05T13:56:37;8.73;;;2.70;;
17658;SDS011;8948;51.534;8.262;2022-08-05T14:01:37;8.18;;;2.58;;
17658;SDS011;8948;51.534;8.262;2022-08-05T14:06:38;3.92;;;2.10;;
17658;SDS011;8948;51.534;8.262;2022-08-05T14:11:39;7.35;;;2.20;;
17658;SDS011;8948;51.534;8.262;2022-08-05T14:16:40;6.38;;;2.50;;
17658;SDS011;8948;51.534;8.262;2022-08-05T14:21:40;7.57;;;2.47;;
17658;SDS011;8948;51.534;8.262;2022-08-05T14:26:41;3.33;;;2.00;;
17658;SDS011;8948;51.534;8.262;2022-08-05T14:31:42;4.75;;;2.10;;
17658;SDS011;8948;51.534;8.262;2022-08-05T14:36:43;5.30;;;2.42;;
17658;SDS011;8948;51.534;8.262;2022-08-05T14:41:44;9.48;;;2.80;;
17658;SDS011;8948;51.534;8.262;2022-08-05T14:46:45;6.28;;;2.83;;
17658;SDS011;8948;51.534;8.262;2022-08-05T14:51:45;4.50;;;2.38;;
17658;SDS011;8948;51.534;8.262;2022-08-05T14:56:46;4.38;;;2.22;;
17658;SDS011;8948;51.534;8.262;2022-08-05T15:01:46;8.07;;;2.20;;
17658;SDS011;8948;51.534;8.262;2022-08-05T15:06:47;7.18;;;2.42;;
17658;SDS011;8948;51.534;8.262;2022-08-05T15:11:49;4.13;;;2.38;;
17658;SDS011;8948;51.534;8.262;2022-08-05T15:16:49;4.47;;;2.25;;
17658;SDS011;8948;51.534;8.262;2022-08-05T15:21:50;7.13;;;3.03;;
17658;SDS011;8948;51.534;8.262;2022-08-05T15:26:51;6.55;;;2.47;;
17658;SDS011;8948;51.534;8.262;2022-08-05T15:31:51;4.07;;;1.95;;
17658;SDS011;8948;51.534;8.262;2022-08-05T15:36:52;4.95;;;1.80;;
17658;SDS011;8948;51.534;8.262;2022-08-05T15:41:52;7.90;;;1.98;;
17658;SDS011;8948;51.534;8.262;2022-08-05T15:46:53;5.38;;;1.70;;
17658;SDS011;8948;51.534;8.262;2022-08-05T15:51:54;4.85;;;1.80;;
17658;SDS011;8948;51.534;8.262;2022-08-05T15:56:54;4.78;;;2.03;;
17658;SDS011;8948;51.534;8.262;2022-08-05T16:01:55;9.23;;;2.63;;
17658;SDS011;8948;51.534;8.262;2022-08-05T16:06:55;8.50;;;2.30;;
17658;SDS011;8948;51.534;8.262;2022-08-05T16:11:56;9.48;;;2.10;;
17658;SDS011;8948;51.534;8.262;2022-08-05T16:16:57;4.85;;;1.67;;
17658;SDS011;8948;51.534;8.262;2022-08-05T16:21:57;6.20;;;1.73;;
17658;SDS011;8948;51.534;8.262;2022-08-05T16:26:59;8.15;;;2.45;;
17658;SDS011;8948;51.534;8.262;2022-08-05T16:32:01;5.75;;;1.70;;
17658;SDS011;8948;51.534;8.262;2022-08-05T16:37:01;5.55;;;2.25;;
17658;SDS011;8948;51.534;8.262;2022-08-05T16:42:02;10.43;;;1.92;;
17658;SDS011;8948;51.534;8.262;2022-08-05T16:47:03;3.55;;;1.55;;
17658;SDS011;8948;51.534;8.262;2022-08-05T16:52:03;4.35;;;1.40;;
17658;SDS011;8948;51.534;8.262;2022-08-05T16:57:04;2.42;;;1.00;;
17658;SDS011;8948;51.534;8.262;2022-08-05T17:02:04;5.55;;;1.60;;
17658;SDS011;8948;51.534;8.262;2022-08-05T17:07:05;4.28;;;1.02;;
17658;SDS011;8948;51.534;8.262;2022-08-05T17:12:06;6.32;;;0.88;;
17658;SDS011;8948;51.534;8.262;2022-08-05T17:17:07;2.90;;;0.82;;
17658;SDS011;8948;51.534;8.262;2022-08-05T17:22:07;3.15;;;0.60;;
17658;SDS011;8948;51.534;8.262;2022-08-05T17:27:08;1.75;;;0.60;;
17658;SDS011;8948;51.534;8.262;2022-08-05T17:32:09;5.32;;;0.85;;
17658;SDS011;8948;51.534;8.262;2022-08-05T17:37:10;2.05;;;0.80;;
17658;SDS011;8948;51.534;8.262;2022-08-05T17:42:10;1.95;;;0.70;;
17658;SDS011;8948;51.534;8.262;2022-08-05T17:47:11;3.60;;;0.80;;
17658;SDS011;8948;51.534;8.262;2022-08-05T17:52:14;6.32;;;1.13;;
17658;SDS011;8948;51.534;8.262;2022-08-05T17:57:14;1.48;;;0.88;;
17658;SDS011;8948;51.534;8.262;2022-08-05T18:02:15;2.85;;;0.70;;
17658;SDS011;8948;51.534;8.262;2022-08-05T18:07:15;2.70;;;0.98;;
17658;SDS011;8948;51.534;8.262;2022-08-05T18:12:16;5.72;;;0.82;;
17658;SDS011;8948;51.534;8.262;2022-08-05T18:17:17;2.75;;;0.98;;
17658;SDS011;8948;51.534;8.262;2022-08-05T18:22:17;2.60;;;0.93;;
17658;SDS011;8948;51.534;8.262;2022-08-05T18:27:18;2.78;;;0.82;;
17658;SDS011;8948;51.534;8.262;2022-08-05T18:32:18;1.85;;;0.82;;
17658;SDS011;8948;51.534;8.262;2022-08-05T18:37:19;2.72;;;0.70;;
17658;SDS011;8948;51.534;8.262;2022-08-05T18:42:19;4.95;;;0.95;;
17658;SDS011;8948;51.534;8.262;2022-08-05T18:47:20;7.88;;;1.13;;
17658;SDS011;8948;51.534;8.262;2022-08-05T18:52:21;3.30;;;0.88;;
17658;SDS011;8948;51.534;8.262;2022-08-05T18:57:40;2.38;;;1.15;;
17658;SDS011;8948;51.534;8.262;2022-08-05T19:02:41;2.60;;;0.70;;
17658;SDS011;8948;51.534;8.262;2022-08-05T19:07:42;1.15;;;0.60;;
17658;SDS011;8948;51.534;8.262;2022-08-05T19:12:47;4.97;;;0.77;;
17658;SDS011;8948;51.534;8.262;2022-08-05T19:17:47;1.73;;;0.80;;
17658;SDS011;8948;51.534;8.262;2022-08-05T19:22:48;5.38;;;0.80;;
17658;SDS011;8948;51.534;8.262;2022-08-05T19:27:49;3.42;;;0.90;;
17658;SDS011;8948;51.534;8.262;2022-08-05T19:32:49;2.80;;;0.80;;
17658;SDS011;8948;51.534;8.262;2022-08-05T19:37:50;2.47;;;0.80;;
17658;SDS011;8948;51.534;8.262;2022-08-05T19:42:50;1.30;;;0.88;;
17658;SDS011;8948;51.534;8.262;2022-08-05T19:47:51;3.40;;;0.85;;
17658;SDS011;8948;51.534;8.262;2022-08-05T19:52:52;3.47;;;0.90;;
17658;SDS011;8948;51.534;8.262;2022-08-05T19:57:52;4.47;;;0.90;;
17658;SDS011;8948;51.534;8.262;2022-08-05T20:02:53;2.38;;;0.75;;
17658;SDS011;8948;51.534;8.262;2022-08-05T20:07:53;1.48;;;0.70;;
17658;SDS011;8948;51.534;8.262;2022-08-05T20:12:54;2.00;;;0.77;;
17658;SDS011;8948;51.534;8.262;2022-08-05T20:17:55;1.58;;;0.70;;
17658;SDS011;8948;51.534;8.262;2022-08-05T20:22:55;4.63;;;1.13;;
17658;SDS011;8948;51.534;8.262;2022-08-05T20:27:56;5.40;;;0.80;;
17658;SDS011;8948;51.534;8.262;2022-08-05T20:32:56;3.95;;;0.80;;
17658;SDS011;8948;51.534;8.262;2022-08-05T20:37:57;1.30;;;0.90;;
17658;SDS011;8948;51.534;8.262;2022-08-05T20:42:57;2.25;;;1.00;;
17658;SDS011;8948;51.534;8.262;2022-08-05T20:47:58;1.58;;;0.90;;
17658;SDS011;8948;51.534;8.262;2022-08-05T20:52:59;1.80;;;0.70;;
17658;SDS011;8948;51.534;8.262;2022-08-05T20:57:59;3.83;;;1.08;;
17658;SDS011;8948;51.534;8.262;2022-08-05T21:03:00;2.75;;;0.98;;
17658;SDS011;8948;51.534;8.262;2022-08-05T21:08:05;4.00;;;1.40;;
17658;SDS011;8948;51.534;8.262;2022-08-05T21:13:05;5.22;;;1.10;;
17658;SDS011;8948;51.534;8.262;2022-08-05T21:18:06;3.40;;;1.17;;
17658;SDS011;8948;51.534;8.262;2022-08-05T21:23:06;4.28;;;0.93;;
17658;SDS011;8948;51.534;8.262;2022-08-05T21:28:07;3.85;;;1.00;;
17658;SDS011;8948;51.534;8.262;2022-08-05T21:33:07;4.82;;;0.80;;
17658;SDS011;8948;51.534;8.262;2022-08-05T21:38:09;4.53;;;1.00;;
17658;SDS011;8948;51.534;8.262;2022-08-05T21:43:09;2.65;;;1.17;;
17658;SDS011;8948;51.534;8.262;2022-08-05T21:48:10;1.42;;;1.02;;
17658;SDS011;8948;51.534;8.262;2022-08-05T21:53:11;1.58;;;1.00;;
17658;SDS011;8948;51.534;8.262;2022-08-05T21:58:11;7.18;;;0.93;;
17658;SDS011;8948;51.534;8.262;2022-08-05T22:03:12;4.60;;;1.17;;
17658;SDS011;8948;51.534;8.262;2022-08-05T22:08:14;3.35;;;1.10;;
17658;SDS011;8948;51.534;8.262;2022-08-05T22:13:15;2.55;;;1.27;;
17658;SDS011;8948;51.534;8.262;2022-08-05T22:18:16;5.57;;;1.33;;
17658;SDS011;8948;51.534;8.262;2022-08-05T22:23:16;7.57;;;1.10;;
17658;SDS011;8948;51.534;8.262;2022-08-05T22:28:36;1.88;;;0.93;;
17658;SDS011;8948;51.534;8.262;2022-08-05T22:33:36;5.10;;;0.80;;
17658;SDS011;8948;51.534;8.262;2022-08-05T22:38:37;2.78;;;0.95;;
17658;SDS011;8948;51.534;8.262;2022-08-05T22:43:37;6.15;;;0.95;;
17658;SDS011;8948;51.534;8.262;2022-08-05T22:48:41;3.55;;;1.15;;
17658;SDS011;8948;51.534;8.262;2022-08-05T22:53:42;1.88;;;0.90;;
17658;SDS011;8948;51.534;8.262;2022-08-05T22:58:42;6.35;;;1.23;;
17658;SDS011;8948;51.534;8.262;2022-08-05T23:03:43;4.68;;;1.20;;
17658;SDS011;8948;51.534;8.262;2022-08-05T23:08:44;2.05;;;1.00;;
17658;SDS011;8948;51.534;8.262;2022-08-05T23:13:44;4.82;;;0.90;;
17658;SDS011;8948;51.534;8.262;2022-08-05T23:18:45;2.35;;;0.95;;
17658;SDS011;8948;51.534;8.262;2022-08-05T23:23:45;4.25;;;1.15;;
17658;SDS011;8948;51.534;8.262;2022-08-05T23:28:46;2.67;;;0.95;;
17658;SDS011;8948;51.534;8.262;2022-08-05T23:33:46;2.35;;;1.05;;
17658;SDS011;8948;51.534;8.262;2022-08-05T23:38:47;3.65;;;0.95;;
17658;SDS011;8948;51.534;8.262;2022-08-05T23:43:47;3.38;;;1.13;;
17658;SDS011;8948;51.534;8.262;2022-08-05T23:48:49;2.97;;;0.90;;
17658;SDS011;8948;51.534;8.262;2022-08-05T23:53:50;2.50;;;1.00;;
17658;SDS011;8948;51.534;8.262;2022-08-05T23:58:51;1.08;;;0.95;;
